sensor_id;sensor_type;location;lat;lon;timestamp;pressure;altitude;pressure_sealevel;temperature;humidity
67803;BME280;54601;51.378;-1.342;2023-03-20T00:00:33;100486.54;;;19.60;30.01
67803;BME280;54601;51.378;-1.342;2023-03-20T00:02:53;100480.52;;;19.73;30.09
67803;BME280;54601;51.378;-1.342;2023-03-20T00:05:20;100473.10;;;19.84;30.02
67803;BME280;54601;51.378;-1.342;2023-03-20T00:07:43;100472.04;;;19.53;30.07
67803;BME280;54601;51.378;-1.342;2023-03-20T00:10:09;100469.04;;;19.51;30.10
67803;BME280;54601;51.378;-1.342;2023-03-20T00:12:34;100470.41;;;19.48;30.17
67803;BME280;54601;51.378;-1.342;2023-03-20T00:15:00;100471.44;;;19.78;30.11
67803;BME280;54601;51.378;-1.342;2023-03-20T00:17:24;100468.92;;;19.60;30.05
67803;BME280;54601;51.378;-1.342;2023-03-20T00:19:49;100468.33;;;19.73;30.20
67803;BME280;54601;51.378;-1.342;2023-03-20T00:22:14;100466.97;;;19.84;30.09
67803;BME280;54601;51.378;-1.342;2023-03-20T00:24:39;100468.23;;;19.55;30.11
67803;BME280;54601;51.378;-1.342;2023-03-20T00:27:04;100465.90;;;19.46;30.23
67803;BME280;54601;51.378;-1.342;2023-03-20T00:29:30;100465.65;;;19.32;30.38
67803;BME280;54601;51.378;-1.342;2023-03-20T00:31:55;100466.46;;;19.53;30.18
67803;BME280;54601;51.378;-1.342;2023-03-20T00:34:22;100468.37;;;19.44;30.29
67803;BME280;54601;51.378;-1.342;2023-03-20T00:36:45;100467.36;;;19.40;30.32
67803;BME280;54601;51.378;-1.342;2023-03-20T00:39:10;100465.46;;;20.03;30.18
67803;BME280;54601;51.378;-1.342;2023-03-20T00:41:41;100464.47;;;19.71;30.29
67803;BME280;54601;51.378;-1.342;2023-03-20T00:44:02;100461.84;;;19.40;30.35
67803;BME280;54601;51.378;-1.342;2023-03-20T00:46:26;100455.96;;;19.54;30.21
67803;BME280;54601;51.378;-1.342;2023-03-20T00:48:51;100459.89;;;19.21;30.33
67803;BME280;54601;51.378;-1.342;2023-03-20T00:51:16;100463.57;;;19.40;30.40
67803;BME280;54601;51.378;-1.342;2023-03-20T00:53:41;100467.18;;;19.86;30.43
67803;BME280;54601;51.378;-1.342;2023-03-20T00:56:08;100468.09;;;19.65;30.45
67803;BME280;54601;51.378;-1.342;2023-03-20T00:58:31;100470.17;;;19.44;30.40
67803;BME280;54601;51.378;-1.342;2023-03-20T01:00:56;100472.20;;;19.77;30.33
67803;BME280;54601;51.378;-1.342;2023-03-20T01:03:23;100465.76;;;19.49;30.37
67803;BME280;54601;51.378;-1.342;2023-03-20T01:05:47;100458.60;;;19.43;30.42
67803;BME280;54601;51.378;-1.342;2023-03-20T01:08:14;100452.95;;;19.45;30.42
67803;BME280;54601;51.378;-1.342;2023-03-20T01:10:37;100451.25;;;19.33;30.55
67803;BME280;54601;51.378;-1.342;2023-03-20T01:13:02;100445.12;;;19.58;30.57
67803;BME280;54601;51.378;-1.342;2023-03-20T01:15:30;100442.43;;;19.40;30.51
67803;BME280;54601;51.378;-1.342;2023-03-20T01:17:52;100441.56;;;19.59;30.57
67803;BME280;54601;51.378;-1.342;2023-03-20T01:20:20;100437.27;;;19.77;30.39
67803;BME280;54601;51.378;-1.342;2023-03-20T01:22:42;100436.98;;;19.58;30.31
67803;BME280;54601;51.378;-1.342;2023-03-20T01:25:08;100432.05;;;19.82;30.33
67803;BME280;54601;51.378;-1.342;2023-03-20T01:27:32;100436.03;;;19.57;30.34
67803;BME280;54601;51.378;-1.342;2023-03-20T01:29:57;100438.54;;;19.46;30.21
67803;BME280;54601;51.378;-1.342;2023-03-20T01:32:22;100433.83;;;19.64;30.26
67803;BME280;54601;51.378;-1.342;2023-03-20T01:34:48;100433.03;;;19.78;30.09
67803;BME280;54601;51.378;-1.342;2023-03-20T01:37:16;100431.54;;;19.71;30.16
67803;BME280;54601;51.378;-1.342;2023-03-20T01:39:38;100431.04;;;19.70;30.17
67803;BME280;54601;51.378;-1.342;2023-03-20T01:42:05;100426.93;;;19.57;30.33
67803;BME280;54601;51.378;-1.342;2023-03-20T01:44:30;100424.42;;;19.59;30.33
67803;BME280;54601;51.378;-1.342;2023-03-20T01:46:54;100423.15;;;19.63;30.28
67803;BME280;54601;51.378;-1.342;2023-03-20T01:51:44;100417.94;;;19.58;30.34
67803;BME280;54601;51.378;-1.342;2023-03-20T01:54:13;100416.01;;;19.56;30.36
67803;BME280;54601;51.378;-1.342;2023-03-20T01:56:37;100409.74;;;19.89;30.31
67803;BME280;54601;51.378;-1.342;2023-03-20T01:59:03;100406.88;;;19.69;30.25
67803;BME280;54601;51.378;-1.342;2023-03-20T02:01:25;100410.76;;;19.53;30.39
67803;BME280;54601;51.378;-1.342;2023-03-20T02:03:50;100404.96;;;19.54;30.41
67803;BME280;54601;51.378;-1.342;2023-03-20T02:06:14;100403.47;;;19.34;30.35
67803;BME280;54601;51.378;-1.342;2023-03-20T02:08:42;100405.79;;;19.65;30.25
67803;BME280;54601;51.378;-1.342;2023-03-20T02:11:05;100402.41;;;19.64;30.55
67803;BME280;54601;51.378;-1.342;2023-03-20T02:13:30;100397.00;;;19.51;30.39
67803;BME280;54601;51.378;-1.342;2023-03-20T02:15:57;100396.93;;;19.44;30.47
67803;BME280;54601;51.378;-1.342;2023-03-20T02:18:19;100397.09;;;19.28;30.38
67803;BME280;54601;51.378;-1.342;2023-03-20T02:20:54;100392.45;;;19.76;30.41
67803;BME280;54601;51.378;-1.342;2023-03-20T02:23:24;100389.77;;;19.72;30.14
67803;BME280;54601;51.378;-1.342;2023-03-20T02:25:44;100385.82;;;19.91;30.25
67803;BME280;54601;51.378;-1.342;2023-03-20T02:28:15;100373.35;;;19.58;30.29
67803;BME280;54601;51.378;-1.342;2023-03-20T02:30:41;100367.89;;;19.62;30.23
67803;BME280;54601;51.378;-1.342;2023-03-20T02:37:54;100370.08;;;19.73;30.11
67803;BME280;54601;51.378;-1.342;2023-03-20T02:40:12;100372.76;;;19.59;30.25
67803;BME280;54601;51.378;-1.342;2023-03-20T02:42:36;100368.68;;;19.81;30.29
67803;BME280;54601;51.378;-1.342;2023-03-20T02:45:03;100365.54;;;19.98;30.11
67803;BME280;54601;51.378;-1.342;2023-03-20T02:47:25;100371.32;;;19.68;30.15
67803;BME280;54601;51.378;-1.342;2023-03-20T02:49:53;100369.12;;;19.65;30.19
67803;BME280;54601;51.378;-1.342;2023-03-20T02:52:15;100363.94;;;19.64;30.18
67803;BME280;54601;51.378;-1.342;2023-03-20T02:54:40;100361.29;;;19.55;30.27
67803;BME280;54601;51.378;-1.342;2023-03-20T02:57:04;100343.71;;;19.89;30.22
67803;BME280;54601;51.378;-1.342;2023-03-20T02:59:31;100357.20;;;19.57;30.27
67803;BME280;54601;51.378;-1.342;2023-03-20T03:01:55;100356.15;;;19.64;30.12
67803;BME280;54601;51.378;-1.342;2023-03-20T03:04:18;100360.36;;;19.90;30.19
67803;BME280;54601;51.378;-1.342;2023-03-20T03:06:43;100357.16;;;19.67;30.11
67803;BME280;54601;51.378;-1.342;2023-03-20T03:09:11;100361.29;;;19.68;30.13
67803;BME280;54601;51.378;-1.342;2023-03-20T03:11:35;100357.80;;;19.74;30.03
67803;BME280;54601;51.378;-1.342;2023-03-20T03:13:57;100347.02;;;19.49;30.27
67803;BME280;54601;51.378;-1.342;2023-03-20T03:16:25;100347.14;;;19.64;30.10
67803;BME280;54601;51.378;-1.342;2023-03-20T03:18:49;100334.67;;;19.67;30.06
67803;BME280;54601;51.378;-1.342;2023-03-20T03:21:15;100344.18;;;19.62;30.14
67803;BME280;54601;51.378;-1.342;2023-03-20T03:23:41;100342.77;;;19.66;30.07
67803;BME280;54601;51.378;-1.342;2023-03-20T03:26:05;100340.15;;;19.87;30.12
67803;BME280;54601;51.378;-1.342;2023-03-20T03:28:31;100337.09;;;19.66;30.08
67803;BME280;54601;51.378;-1.342;2023-03-20T03:30:53;100336.27;;;19.70;30.01
67803;BME280;54601;51.378;-1.342;2023-03-20T03:33:20;100332.37;;;20.12;30.10
67803;BME280;54601;51.378;-1.342;2023-03-20T03:35:44;100328.20;;;19.84;30.16
67803;BME280;54601;51.378;-1.342;2023-03-20T03:38:23;100330.89;;;19.58;30.17
67803;BME280;54601;51.378;-1.342;2023-03-20T03:40:37;100328.22;;;19.61;30.11
67803;BME280;54601;51.378;-1.342;2023-03-20T03:43:01;100323.27;;;19.55;30.15
67803;BME280;54601;51.378;-1.342;2023-03-20T03:45:29;100321.29;;;19.63;30.07
67803;BME280;54601;51.378;-1.342;2023-03-20T03:47:52;100320.81;;;19.62;30.08
67803;BME280;54601;51.378;-1.342;2023-03-20T03:50:15;100324.83;;;19.71;29.98
67803;BME280;54601;51.378;-1.342;2023-03-20T03:52:40;100327.72;;;19.72;29.98
67803;BME280;54601;51.378;-1.342;2023-03-20T03:55:07;100328.08;;;19.78;30.16
67803;BME280;54601;51.378;-1.342;2023-03-20T03:57:33;100323.19;;;19.43;30.26
67803;BME280;54601;51.378;-1.342;2023-03-20T03:59:55;100324.92;;;19.60;30.07
67803;BME280;54601;51.378;-1.342;2023-03-20T04:02:20;100322.54;;;19.62;30.05
67803;BME280;54601;51.378;-1.342;2023-03-20T04:04:47;100323.60;;;19.90;30.02
67803;BME280;54601;51.378;-1.342;2023-03-20T04:07:09;100320.90;;;19.71;29.97
67803;BME280;54601;51.378;-1.342;2023-03-20T04:09:34;100323.12;;;19.88;30.11
67803;BME280;54601;51.378;-1.342;2023-03-20T04:11:59;100323.85;;;19.63;30.34
67803;BME280;54601;51.378;-1.342;2023-03-20T04:14:24;100326.46;;;19.62;30.03
67803;BME280;54601;51.378;-1.342;2023-03-20T04:16:49;100322.47;;;19.45;30.24
67803;BME280;54601;51.378;-1.342;2023-03-20T04:19:14;100317.02;;;19.82;30.14
67803;BME280;54601;51.378;-1.342;2023-03-20T04:21:39;100316.22;;;19.56;30.10
67803;BME280;54601;51.378;-1.342;2023-03-20T04:24:04;100316.52;;;19.61;30.06
67803;BME280;54601;51.378;-1.342;2023-03-20T04:26:29;100318.32;;;19.48;30.19
67803;BME280;54601;51.378;-1.342;2023-03-20T04:28:54;100318.99;;;19.74;30.22
67803;BME280;54601;51.378;-1.342;2023-03-20T04:31:19;100307.23;;;19.39;30.30
67803;BME280;54601;51.378;-1.342;2023-03-20T04:33:44;100309.48;;;19.49;30.20
67803;BME280;54601;51.378;-1.342;2023-03-20T04:36:10;100301.31;;;19.81;30.13
67803;BME280;54601;51.378;-1.342;2023-03-20T04:38:34;100289.57;;;19.55;30.12
67803;BME280;54601;51.378;-1.342;2023-03-20T04:40:59;100289.97;;;19.62;30.07
67803;BME280;54601;51.378;-1.342;2023-03-20T04:43:24;100289.32;;;19.48;30.18
67803;BME280;54601;51.378;-1.342;2023-03-20T04:45:50;100288.25;;;19.39;30.29
67803;BME280;54601;51.378;-1.342;2023-03-20T04:48:15;100282.09;;;19.51;30.15
67803;BME280;54601;51.378;-1.342;2023-03-20T04:50:40;100291.38;;;19.47;30.24
67803;BME280;54601;51.378;-1.342;2023-03-20T04:53:05;100291.97;;;19.88;30.07
67803;BME280;54601;51.378;-1.342;2023-03-20T04:55:30;100292.87;;;19.51;30.17
67803;BME280;54601;51.378;-1.342;2023-03-20T04:57:55;100284.56;;;19.81;30.15
67803;BME280;54601;51.378;-1.342;2023-03-20T05:00:21;100279.75;;;19.73;30.24
67803;BME280;54601;51.378;-1.342;2023-03-20T05:02:45;100283.18;;;19.89;30.06
67803;BME280;54601;51.378;-1.342;2023-03-20T05:05:10;100280.10;;;19.51;30.18
67803;BME280;54601;51.378;-1.342;2023-03-20T05:07:36;100284.08;;;19.34;30.38
67803;BME280;54601;51.378;-1.342;2023-03-20T05:10:01;100279.30;;;19.45;30.26
67803;BME280;54601;51.378;-1.342;2023-03-20T05:12:26;100280.01;;;19.51;30.44
67803;BME280;54601;51.378;-1.342;2023-03-20T05:14:51;100280.77;;;19.27;30.42
67803;BME280;54601;51.378;-1.342;2023-03-20T05:17:16;100280.86;;;19.46;30.80
67803;BME280;54601;51.378;-1.342;2023-03-20T05:19:41;100276.01;;;18.98;30.81
67803;BME280;54601;51.378;-1.342;2023-03-20T05:22:06;100272.53;;;19.15;30.90
67803;BME280;54601;51.378;-1.342;2023-03-20T05:24:31;100272.83;;;19.38;30.93
67803;BME280;54601;51.378;-1.342;2023-03-20T05:26:57;100276.58;;;19.51;30.78
67803;BME280;54601;51.378;-1.342;2023-03-20T05:29:22;100279.67;;;19.19;30.89
67803;BME280;54601;51.378;-1.342;2023-03-20T05:31:47;100278.67;;;18.97;31.13
67803;BME280;54601;51.378;-1.342;2023-03-20T05:34:12;100276.15;;;19.09;31.03
67803;BME280;54601;51.378;-1.342;2023-03-20T05:36:37;100278.20;;;19.17;31.17
67803;BME280;54601;51.378;-1.342;2023-03-20T05:39:02;100276.62;;;19.09;31.05
67803;BME280;54601;51.378;-1.342;2023-03-20T05:41:27;100282.49;;;19.40;30.92
67803;BME280;54601;51.378;-1.342;2023-03-20T05:43:52;100283.55;;;19.43;30.90
67803;BME280;54601;51.378;-1.342;2023-03-20T05:46:18;100287.12;;;19.18;30.92
67803;BME280;54601;51.378;-1.342;2023-03-20T05:48:43;100287.29;;;18.91;31.24
67803;BME280;54601;51.378;-1.342;2023-03-20T05:51:08;100287.52;;;19.04;31.08
67803;BME280;54601;51.378;-1.342;2023-03-20T05:53:33;100287.92;;;19.38;30.96
67803;BME280;54601;51.378;-1.342;2023-03-20T05:55:58;100287.29;;;19.15;30.97
67803;BME280;54601;51.378;-1.342;2023-03-20T05:58:23;100290.77;;;19.32;31.02
67803;BME280;54601;51.378;-1.342;2023-03-20T06:00:48;100292.60;;;19.14;30.99
67803;BME280;54601;51.378;-1.342;2023-03-20T06:03:13;100294.94;;;19.44;30.93
67803;BME280;54601;51.378;-1.342;2023-03-20T06:05:39;100291.88;;;18.53;30.81
67803;BME280;54601;51.378;-1.342;2023-03-20T06:08:04;100290.52;;;19.30;30.82
67803;BME280;54601;51.378;-1.342;2023-03-20T06:10:29;100286.62;;;19.24;30.88
67803;BME280;54601;51.378;-1.342;2023-03-20T06:12:54;100283.76;;;18.96;31.20
67803;BME280;54601;51.378;-1.342;2023-03-20T06:15:19;100282.13;;;19.02;31.14
67803;BME280;54601;51.378;-1.342;2023-03-20T06:17:44;100280.79;;;19.19;31.20
67803;BME280;54601;51.378;-1.342;2023-03-20T06:20:10;100283.01;;;19.29;31.09
67803;BME280;54601;51.378;-1.342;2023-03-20T06:22:34;100278.59;;;19.21;31.18
67803;BME280;54601;51.378;-1.342;2023-03-20T06:25:00;100279.72;;;18.90;31.29
67803;BME280;54601;51.378;-1.342;2023-03-20T06:27:25;100277.14;;;19.37;31.02
67803;BME280;54601;51.378;-1.342;2023-03-20T06:29:50;100276.64;;;19.13;31.04
67803;BME280;54601;51.378;-1.342;2023-03-20T06:32:15;100277.60;;;19.23;31.19
67803;BME280;54601;51.378;-1.342;2023-03-20T06:34:40;100279.28;;;19.04;31.15
67803;BME280;54601;51.378;-1.342;2023-03-20T06:37:06;100278.42;;;18.95;31.26
67803;BME280;54601;51.378;-1.342;2023-03-20T06:39:31;100278.78;;;18.67;31.28
67803;BME280;54601;51.378;-1.342;2023-03-20T06:41:56;100283.16;;;19.13;31.07
67803;BME280;54601;51.378;-1.342;2023-03-20T06:44:21;100284.68;;;19.36;31.07
67803;BME280;54601;51.378;-1.342;2023-03-20T06:46:46;100280.72;;;19.28;31.15
67803;BME280;54601;51.378;-1.342;2023-03-20T06:49:11;100281.14;;;19.15;31.28
67803;BME280;54601;51.378;-1.342;2023-03-20T06:51:36;100283.77;;;19.32;31.14
67803;BME280;54601;51.378;-1.342;2023-03-20T06:54:01;100286.76;;;19.24;31.22
67803;BME280;54601;51.378;-1.342;2023-03-20T06:56:26;100281.29;;;19.27;31.21
67803;BME280;54601;51.378;-1.342;2023-03-20T06:58:52;100293.65;;;19.42;31.04
67803;BME280;54601;51.378;-1.342;2023-03-20T07:01:17;100287.77;;;19.26;31.17
67803;BME280;54601;51.378;-1.342;2023-03-20T07:03:42;100290.76;;;19.09;31.18
67803;BME280;54601;51.378;-1.342;2023-03-20T07:06:08;100293.99;;;19.38;31.12
67803;BME280;54601;51.378;-1.342;2023-03-20T07:08:32;100291.34;;;19.28;31.24
67803;BME280;54601;51.378;-1.342;2023-03-20T07:10:57;100297.25;;;19.22;31.34
67803;BME280;54601;51.378;-1.342;2023-03-20T07:13:22;100300.35;;;19.07;31.26
67803;BME280;54601;51.378;-1.342;2023-03-20T07:15:47;100308.80;;;19.32;31.22
67803;BME280;54601;51.378;-1.342;2023-03-20T07:18:13;100308.83;;;18.85;31.55
67803;BME280;54601;51.378;-1.342;2023-03-20T07:20:38;100311.65;;;18.95;31.45
67803;BME280;54601;51.378;-1.342;2023-03-20T07:23:03;100313.06;;;19.24;31.42
67803;BME280;54601;51.378;-1.342;2023-03-20T07:25:28;100313.60;;;19.28;31.37
67803;BME280;54601;51.378;-1.342;2023-03-20T07:27:53;100315.76;;;18.95;31.50
67803;BME280;54601;51.378;-1.342;2023-03-20T07:30:18;100313.20;;;19.12;31.36
67803;BME280;54601;51.378;-1.342;2023-03-20T07:32:44;100315.10;;;18.82;31.40
67803;BME280;54601;51.378;-1.342;2023-03-20T07:35:09;100313.24;;;19.04;31.46
67803;BME280;54601;51.378;-1.342;2023-03-20T07:37:33;100315.77;;;19.36;31.38
67803;BME280;54601;51.378;-1.342;2023-03-20T07:39:59;100317.82;;;19.13;31.39
67803;BME280;54601;51.378;-1.342;2023-03-20T07:42:24;100315.72;;;19.35;31.42
67803;BME280;54601;51.378;-1.342;2023-03-20T07:44:49;100309.18;;;19.20;31.59
67803;BME280;54601;51.378;-1.342;2023-03-20T07:47:14;100303.43;;;19.32;31.51
67803;BME280;54601;51.378;-1.342;2023-03-20T07:49:39;100299.20;;;19.03;31.85
67803;BME280;54601;51.378;-1.342;2023-03-20T07:52:04;100299.46;;;19.05;31.88
67803;BME280;54601;51.378;-1.342;2023-03-20T07:54:29;100299.78;;;18.90;32.07
67803;BME280;54601;51.378;-1.342;2023-03-20T07:56:55;100299.18;;;19.15;31.82
67803;BME280;54601;51.378;-1.342;2023-03-20T07:59:20;100299.91;;;18.95;31.82
67803;BME280;54601;51.378;-1.342;2023-03-20T08:01:45;100302.80;;;18.87;31.95
67803;BME280;54601;51.378;-1.342;2023-03-20T08:04:10;100302.22;;;18.97;31.86
67803;BME280;54601;51.378;-1.342;2023-03-20T08:06:35;100305.77;;;19.19;31.89
67803;BME280;54601;51.378;-1.342;2023-03-20T08:09:00;100303.89;;;18.84;32.07
67803;BME280;54601;51.378;-1.342;2023-03-20T08:11:25;100308.67;;;18.84;32.12
67803;BME280;54601;51.378;-1.342;2023-03-20T08:13:50;100314.35;;;19.03;32.18
67803;BME280;54601;51.378;-1.342;2023-03-20T08:16:16;100317.87;;;18.78;32.24
67803;BME280;54601;51.378;-1.342;2023-03-20T08:18:41;100324.22;;;19.23;32.01
67803;BME280;54601;51.378;-1.342;2023-03-20T08:21:06;100327.33;;;19.18;32.10
67803;BME280;54601;51.378;-1.342;2023-03-20T08:23:31;100324.62;;;19.52;31.75
67803;BME280;54601;51.378;-1.342;2023-03-20T08:25:56;100324.20;;;18.91;31.89
67803;BME280;54601;51.378;-1.342;2023-03-20T08:28:22;100323.34;;;18.98;31.84
67803;BME280;54601;51.378;-1.342;2023-03-20T08:30:46;100322.12;;;19.25;31.88
67803;BME280;54601;51.378;-1.342;2023-03-20T08:33:12;100320.72;;;19.07;31.78
67803;BME280;54601;51.378;-1.342;2023-03-20T08:35:37;100317.17;;;19.23;31.93
67803;BME280;54601;51.378;-1.342;2023-03-20T08:38:02;100316.48;;;19.57;31.85
67803;BME280;54601;51.378;-1.342;2023-03-20T08:40:27;100318.03;;;18.71;32.47
67803;BME280;54601;51.378;-1.342;2023-03-20T08:42:52;100321.31;;;18.76;32.94
67803;BME280;54601;51.378;-1.342;2023-03-20T08:45:17;100321.35;;;18.61;32.94
67803;BME280;54601;51.378;-1.342;2023-03-20T08:47:42;100323.21;;;18.90;32.96
67803;BME280;54601;51.378;-1.342;2023-03-20T08:50:08;100319.31;;;18.93;33.00
67803;BME280;54601;51.378;-1.342;2023-03-20T08:52:32;100314.08;;;19.00;33.02
67803;BME280;54601;51.378;-1.342;2023-03-20T08:54:57;100312.79;;;19.15;32.87
67803;BME280;54601;51.378;-1.342;2023-03-20T08:57:22;100313.00;;;19.25;33.14
67803;BME280;54601;51.378;-1.342;2023-03-20T08:59:48;100314.41;;;18.90;33.37
67803;BME280;54601;51.378;-1.342;2023-03-20T09:02:13;100317.80;;;18.53;33.61
67803;BME280;54601;51.378;-1.342;2023-03-20T09:04:38;100310.93;;;18.96;33.48
67803;BME280;54601;51.378;-1.342;2023-03-20T09:07:03;100316.96;;;18.68;33.90
67803;BME280;54601;51.378;-1.342;2023-03-20T09:09:28;100322.04;;;19.02;33.82
67803;BME280;54601;51.378;-1.342;2023-03-20T09:11:53;100321.13;;;18.88;33.77
67803;BME280;54601;51.378;-1.342;2023-03-20T09:14:18;100323.11;;;19.15;33.52
67803;BME280;54601;51.378;-1.342;2023-03-20T09:16:43;100322.74;;;19.02;33.40
67803;BME280;54601;51.378;-1.342;2023-03-20T09:19:08;100323.68;;;19.02;33.71
67803;BME280;54601;51.378;-1.342;2023-03-20T09:21:34;100324.62;;;19.23;33.65
67803;BME280;54601;51.378;-1.342;2023-03-20T09:23:59;100328.20;;;18.96;33.98
67803;BME280;54601;51.378;-1.342;2023-03-20T09:26:24;100320.77;;;18.52;34.22
67803;BME280;54601;51.378;-1.342;2023-03-20T09:28:49;100315.09;;;18.72;34.21
67803;BME280;54601;51.378;-1.342;2023-03-20T09:31:14;100315.22;;;19.23;34.18
67803;BME280;54601;51.378;-1.342;2023-03-20T09:33:39;100316.77;;;19.19;33.64
67803;BME280;54601;51.378;-1.342;2023-03-20T09:36:05;100318.50;;;18.86;34.03
67803;BME280;54601;51.378;-1.342;2023-03-20T09:38:29;100328.01;;;19.02;33.86
67803;BME280;54601;51.378;-1.342;2023-03-20T09:40:56;100325.98;;;18.96;33.93
67803;BME280;54601;51.378;-1.342;2023-03-20T09:43:28;100328.94;;;19.50;33.67
67803;BME280;54601;51.378;-1.342;2023-03-20T09:45:50;100330.28;;;19.03;33.92
67803;BME280;54601;51.378;-1.342;2023-03-20T09:48:14;100330.72;;;19.23;33.74
67803;BME280;54601;51.378;-1.342;2023-03-20T09:50:37;100333.49;;;18.84;34.32
67803;BME280;54601;51.378;-1.342;2023-03-20T09:53:03;100329.03;;;18.84;34.26
67803;BME280;54601;51.378;-1.342;2023-03-20T09:55:31;100335.51;;;18.91;34.34
67803;BME280;54601;51.378;-1.342;2023-03-20T09:57:52;100330.61;;;19.01;34.37
67803;BME280;54601;51.378;-1.342;2023-03-20T10:02:46;100328.50;;;19.38;34.02
67803;BME280;54601;51.378;-1.342;2023-03-20T10:05:14;100327.10;;;19.42;33.96
67803;BME280;54601;51.378;-1.342;2023-03-20T10:07:30;100324.28;;;18.98;34.29
67803;BME280;54601;51.378;-1.342;2023-03-20T10:09:55;100322.02;;;19.35;34.11
67803;BME280;54601;51.378;-1.342;2023-03-20T10:12:29;100323.85;;;19.27;33.94
67803;BME280;54601;51.378;-1.342;2023-03-20T10:14:52;100323.96;;;19.59;33.81
67803;BME280;54601;51.378;-1.342;2023-03-20T10:17:20;100327.14;;;19.43;34.00
67803;BME280;54601;51.378;-1.342;2023-03-20T10:19:42;100325.76;;;19.22;34.10
67803;BME280;54601;51.378;-1.342;2023-03-20T10:22:06;100326.59;;;19.47;34.07
67803;BME280;54601;51.378;-1.342;2023-03-20T10:24:28;100326.56;;;19.19;34.22
67803;BME280;54601;51.378;-1.342;2023-03-20T10:26:52;100326.84;;;19.03;34.31
67803;BME280;54601;51.378;-1.342;2023-03-20T10:29:23;100326.06;;;19.27;34.27
67803;BME280;54601;51.378;-1.342;2023-03-20T10:31:44;100322.19;;;19.13;34.40
67803;BME280;54601;51.378;-1.342;2023-03-20T10:34:18;100323.03;;;19.30;34.18
67803;BME280;54601;51.378;-1.342;2023-03-20T10:36:42;100320.56;;;19.15;34.36
67803;BME280;54601;51.378;-1.342;2023-03-20T10:38:59;100320.38;;;18.92;34.67
67803;BME280;54601;51.378;-1.342;2023-03-20T10:41:25;100327.27;;;19.23;34.40
67803;BME280;54601;51.378;-1.342;2023-03-20T10:43:49;100323.76;;;18.83;34.91
67803;BME280;54601;51.378;-1.342;2023-03-20T10:46:14;100323.75;;;19.09;34.67
67803;BME280;54601;51.378;-1.342;2023-03-20T10:48:40;100330.39;;;19.36;34.42
67803;BME280;54601;51.378;-1.342;2023-03-20T10:51:03;100329.58;;;19.26;34.61
67803;BME280;54601;51.378;-1.342;2023-03-20T10:53:30;100331.86;;;19.49;34.39
67803;BME280;54601;51.378;-1.342;2023-03-20T10:55:54;100333.10;;;19.50;34.41
67803;BME280;54601;51.378;-1.342;2023-03-20T10:58:20;100332.25;;;19.52;34.41
67803;BME280;54601;51.378;-1.342;2023-03-20T11:00:42;100334.76;;;19.40;34.45
67803;BME280;54601;51.378;-1.342;2023-03-20T11:03:16;100331.05;;;19.71;34.33
67803;BME280;54601;51.378;-1.342;2023-03-20T11:05:34;100332.91;;;19.11;34.54
67803;BME280;54601;51.378;-1.342;2023-03-20T11:08:03;100335.30;;;19.68;34.38
67803;BME280;54601;51.378;-1.342;2023-03-20T11:10:26;100331.90;;;19.72;34.33
67803;BME280;54601;51.378;-1.342;2023-03-20T11:12:48;100328.41;;;19.75;34.36
67803;BME280;54601;51.378;-1.342;2023-03-20T11:15:19;100321.73;;;19.72;34.38
67803;BME280;54601;51.378;-1.342;2023-03-20T11:17:43;100320.46;;;19.61;34.30
67803;BME280;54601;51.378;-1.342;2023-03-20T11:20:05;100314.65;;;19.32;34.29
67803;BME280;54601;51.378;-1.342;2023-03-20T11:22:28;100309.94;;;19.90;34.21
67803;BME280;54601;51.378;-1.342;2023-03-20T11:24:54;100311.99;;;19.95;34.12
67803;BME280;54601;51.378;-1.342;2023-03-20T11:27:23;100311.34;;;19.86;34.01
67803;BME280;54601;51.378;-1.342;2023-03-20T11:29:47;100313.19;;;19.62;34.25
67803;BME280;54601;51.378;-1.342;2023-03-20T11:32:18;100313.12;;;19.94;34.21
67803;BME280;54601;51.378;-1.342;2023-03-20T11:34:36;100314.39;;;19.93;34.25
67803;BME280;54601;51.378;-1.342;2023-03-20T11:36:59;100314.06;;;19.37;34.38
67803;BME280;54601;51.378;-1.342;2023-03-20T11:39:25;100313.75;;;20.09;34.09
67803;BME280;54601;51.378;-1.342;2023-03-20T11:41:51;100317.40;;;19.62;34.31
67803;BME280;54601;51.378;-1.342;2023-03-20T11:44:23;100315.92;;;19.70;34.24
67803;BME280;54601;51.378;-1.342;2023-03-20T11:46:39;100315.25;;;19.91;34.23
67803;BME280;54601;51.378;-1.342;2023-03-20T11:49:06;100315.14;;;19.75;34.26
67803;BME280;54601;51.378;-1.342;2023-03-20T11:51:29;100311.99;;;19.96;34.24
67803;BME280;54601;51.378;-1.342;2023-03-20T11:53:59;100312.05;;;19.62;34.39
67803;BME280;54601;51.378;-1.342;2023-03-20T11:56:21;100309.19;;;19.58;34.16
67803;BME280;54601;51.378;-1.342;2023-03-20T11:58:50;100311.15;;;19.90;33.72
67803;BME280;54601;51.378;-1.342;2023-03-20T12:01:11;100304.33;;;20.01;33.69
67803;BME280;54601;51.378;-1.342;2023-03-20T12:03:40;100294.62;;;20.05;33.76
67803;BME280;54601;51.378;-1.342;2023-03-20T12:06:00;100288.63;;;20.39;33.59
67803;BME280;54601;51.378;-1.342;2023-03-20T12:08:26;100287.40;;;19.95;33.55
67803;BME280;54601;51.378;-1.342;2023-03-20T12:10:54;100283.80;;;20.08;33.65
67803;BME280;54601;51.378;-1.342;2023-03-20T12:13:17;100287.43;;;20.78;33.14
67803;BME280;54601;51.378;-1.342;2023-03-20T12:15:43;100288.45;;;20.63;33.19
67803;BME280;54601;51.378;-1.342;2023-03-20T12:18:08;100287.50;;;20.23;33.28
67803;BME280;54601;51.378;-1.342;2023-03-20T12:20:34;100284.80;;;20.27;33.19
67803;BME280;54601;51.378;-1.342;2023-03-20T12:23:01;100285.71;;;19.94;33.23
67803;BME280;54601;51.378;-1.342;2023-03-20T12:25:23;100287.10;;;20.43;32.93
67803;BME280;54601;51.378;-1.342;2023-03-20T12:27:48;100284.47;;;20.14;33.21
67803;BME280;54601;51.378;-1.342;2023-03-20T12:30:14;100283.87;;;20.12;33.23
67803;BME280;54601;51.378;-1.342;2023-03-20T12:32:40;100283.71;;;20.17;33.12
67803;BME280;54601;51.378;-1.342;2023-03-20T12:35:04;100282.65;;;20.39;33.11
67803;BME280;54601;51.378;-1.342;2023-03-20T12:37:25;100277.08;;;20.23;33.03